createdAt,value
2019-03-27T06:20:06.644Z,22.00
2019-03-27T06:48:39.822Z,23.37
2019-03-27T06:51:08.801Z,16.33
2019-03-27T06:53:37.992Z,15.60
2019-03-27T06:56:07.479Z,16.10
2019-03-27T06:58:36.438Z,16.60
2019-03-27T07:01:06.667Z,13.20
2019-03-27T07:03:39.112Z,17.17
2019-03-27T07:06:25.577Z,17.90
2019-03-27T07:08:58.163Z,14.97
2019-03-27T07:11:31.134Z,14.03
2019-03-27T07:14:00.185Z,16.57
2019-03-27T07:16:29.056Z,15.73
2019-03-27T07:19:00.403Z,9.90
2019-03-27T09:08:44.531Z,12.33
2019-03-27T09:11:15.655Z,15.30
2019-03-27T09:13:46.921Z,14.23
2019-03-27T09:19:36.100Z,11.17
2019-03-27T09:22:01.312Z,11.07
2019-03-27T09:24:31.057Z,13.77
2019-03-27T09:27:03.497Z,14.93
2019-03-27T09:29:33.212Z,16.77
2019-03-27T09:32:06.635Z,15.37
2019-03-27T09:34:41.327Z,18.77
2019-03-27T09:37:14.241Z,14.47
2019-03-27T09:39:46.288Z,12.63
2019-03-27T09:42:15.728Z,13.57
2019-03-27T09:44:44.869Z,14.87
2019-03-27T09:47:14.476Z,14.43
2019-03-27T09:49:49.702Z,15.90
2019-03-27T09:52:15.635Z,16.30
2019-03-27T09:54:45.141Z,10.43
2019-03-27T09:57:14.724Z,17.83
2019-03-27T09:59:43.859Z,11.83
2019-03-27T10:02:16.674Z,10.27
2019-03-27T10:04:50.819Z,16.67
2019-03-27T10:07:20.178Z,10.93
2019-03-27T10:09:50.430Z,13.97
2019-03-27T10:12:19.578Z,13.00
2019-03-27T10:14:48.744Z,15.37
2019-03-27T10:17:17.865Z,10.23
2019-03-27T10:19:46.963Z,12.27
2019-03-27T10:22:16.077Z,15.17
2019-03-27T10:24:45.456Z,15.00
2019-03-27T10:27:14.813Z,14.83
2019-03-27T10:29:43.769Z,12.67
2019-03-27T10:32:12.881Z,15.77
2019-03-27T10:34:42.036Z,13.13
2019-03-27T10:37:11.209Z,16.77
2019-03-27T10:39:40.229Z,13.00
2019-03-27T10:42:12.031Z,14.13
2019-03-27T10:44:41.349Z,16.70
2019-03-27T10:47:10.569Z,17.33
2019-03-27T10:49:40.577Z,13.27
2019-03-27T10:52:09.892Z,17.00
2019-03-27T10:54:39.184Z,16.30
2019-03-27T10:57:08.520Z,17.07
2019-03-27T10:59:37.941Z,16.20
2019-03-27T11:02:07.296Z,12.63
2019-03-27T11:04:36.900Z,20.97
2019-03-27T11:07:08.076Z,15.13
2019-03-27T11:09:39.661Z,16.53
2019-03-27T11:12:09.143Z,16.40
2019-03-27T11:14:38.560Z,18.27
2019-03-27T11:33:31.517Z,17.27
2019-03-27T11:36:00.668Z,18.60
2019-03-27T11:38:32.463Z,16.53
2019-03-27T11:41:01.690Z,13.93
2019-03-27T11:43:30.595Z,18.70
2019-03-27T11:45:59.406Z,17.37
2019-03-27T11:48:28.280Z,15.73
2019-03-27T11:50:57.049Z,16.40
2019-03-27T11:53:25.680Z,14.43
2019-03-27T11:55:54.421Z,16.20
2019-03-27T11:58:23.150Z,21.10
2019-03-27T12:00:54.817Z,16.87
2019-03-27T12:03:22.475Z,15.57
2019-03-27T12:05:52.761Z,16.07
2019-03-27T12:08:23.596Z,15.80
2019-03-27T12:10:52.388Z,16.80
2019-03-27T12:13:21.357Z,15.43
2019-03-27T12:15:50.125Z,14.53
2019-03-27T12:18:18.953Z,15.83
2019-03-27T12:20:58.384Z,16.27
2019-03-27T12:23:18.276Z,12.57
2019-03-27T12:25:47.161Z,10.57
2019-03-27T12:28:16.167Z,12.57
2019-03-27T12:30:44.998Z,16.50
2019-03-27T12:33:13.882Z,13.40
2019-03-27T12:35:42.665Z,11.73
2019-03-27T12:38:11.493Z,14.53
2019-03-27T12:40:43.882Z,13.80
2019-03-27T12:43:12.670Z,14.50
2019-03-27T12:45:41.461Z,12.97
2019-03-27T12:48:10.150Z,12.97
2019-03-27T12:50:38.879Z,12.27
2019-03-27T12:53:07.883Z,13.47
2019-03-27T12:55:36.693Z,12.23
2019-03-27T12:58:05.527Z,12.67
2019-03-27T13:00:34.243Z,13.87
2019-03-27T13:03:02.996Z,11.20
2019-03-27T13:05:31.754Z,9.13
2019-03-27T13:08:00.431Z,11.90
2019-03-27T13:10:29.173Z,12.90
2019-03-27T13:12:58.215Z,11.80
2019-03-27T13:15:27.234Z,12.67
2019-03-27T13:17:58.074Z,10.13
2019-03-27T13:20:27.143Z,11.10
2019-03-27T13:22:56.243Z,13.50
2019-03-27T13:25:25.603Z,11.37
2019-03-27T13:27:58.301Z,11.53
2019-03-27T13:30:27.557Z,17.10
2019-03-27T13:32:56.777Z,13.53
2019-03-27T13:35:25.883Z,7.37
2019-03-27T13:37:57.985Z,12.50
2019-03-27T13:40:27.036Z,16.07
2019-03-27T13:42:57.126Z,10.90
2019-03-27T13:45:26.202Z,8.80
2019-03-27T13:47:55.329Z,7.83
2019-03-27T13:50:24.524Z,11.03
2019-03-27T13:52:53.921Z,9.33
2019-03-27T13:55:23.026Z,6.27
2019-03-27T13:57:52.130Z,7.83
2019-03-27T14:00:21.320Z,6.87
2019-03-27T14:02:50.358Z,9.77
2019-03-27T14:05:19.393Z,11.97
2019-03-27T14:07:48.426Z,9.90
2019-03-27T14:10:17.404Z,9.50
2019-03-27T14:12:46.518Z,20.10
2019-03-27T14:15:15.748Z,20.50
2019-03-27T14:17:44.741Z,9.83
2019-03-27T14:20:16.502Z,6.50
2019-03-27T14:22:46.901Z,12.10
2019-03-27T14:25:16.201Z,14.03
2019-03-27T14:27:45.659Z,7.57
2019-03-27T14:30:16.489Z,9.63
2019-03-27T14:32:46.618Z,10.57
2019-03-27T14:35:15.667Z,10.93
2019-03-27T14:37:44.910Z,13.00
2019-03-27T14:40:14.115Z,15.10
2019-03-27T14:42:43.406Z,11.43
2019-03-27T14:45:18.648Z,10.83
2019-03-27T14:47:50.891Z,16.03
2019-03-27T14:50:24.938Z,12.63
2019-03-27T14:52:54.546Z,23.23
2019-03-27T14:55:24.454Z,16.60
2019-03-27T14:57:56.022Z,9.47
2019-03-27T15:00:26.196Z,11.77
2019-03-27T15:02:56.958Z,12.00
2019-03-27T15:05:32.855Z,14.63
2019-03-27T15:08:05.438Z,9.83
2019-03-27T15:10:41.496Z,13.93
2019-03-27T15:13:15.619Z,14.97
2019-03-27T15:15:50.400Z,11.60
2019-03-27T15:18:29.083Z,15.20
2019-03-27T15:21:00.453Z,18.40
2019-03-27T15:23:42.205Z,13.43
2019-03-27T15:26:19.650Z,17.13
2019-03-27T15:28:51.422Z,15.03
2019-03-27T15:31:23.028Z,14.80
2019-03-27T15:34:16.475Z,12.17
2019-03-27T15:37:23.303Z,13.20
2019-03-27T15:39:38.336Z,10.27
2019-03-27T15:43:15.767Z,8.80
2019-03-27T15:46:43.216Z,9.67
2019-03-27T15:48:33.491Z,9.90
2019-03-27T15:51:13.538Z,11.43
2019-03-27T15:53:53.551Z,11.87
2019-03-27T15:56:22.346Z,10.87
2019-03-27T15:58:51.117Z,10.97
2019-03-27T16:01:20.526Z,13.50
2019-03-27T16:03:49.520Z,15.00
2019-03-27T16:06:18.627Z,15.80
2019-03-27T16:08:47.816Z,14.93
2019-03-27T16:11:16.885Z,19.27
2019-03-27T16:13:47.729Z,17.70
2019-03-27T16:16:16.852Z,19.93
2019-03-27T16:18:45.834Z,18.63
2019-03-27T16:21:18.099Z,22.60
2019-03-27T16:23:47.416Z,23.00
2019-03-27T16:26:16.543Z,22.93
2019-03-27T16:28:45.808Z,24.23
2019-03-27T16:31:14.864Z,24.93
2019-03-27T16:33:43.957Z,20.57
2019-03-27T16:36:13.257Z,23.30
2019-03-27T16:38:45.130Z,20.77
2019-03-27T16:41:14.832Z,24.67
2019-03-27T16:43:44.449Z,24.80
2019-03-27T16:46:19.307Z,27.80
2019-03-27T16:48:50.444Z,26.23
2019-03-27T16:51:25.394Z,25.73
2019-03-27T16:53:55.572Z,26.63
2019-03-27T16:56:25.105Z,23.47
2019-03-27T16:58:57.284Z,31.20
2019-03-27T17:01:29.845Z,28.77
2019-03-27T17:04:11.640Z,25.27
2019-03-27T17:06:40.555Z,25.77
2019-03-27T17:09:14.752Z,27.90
2019-03-27T17:11:43.946Z,30.70
2019-03-27T17:14:13.077Z,31.13
2019-03-27T17:16:42.392Z,27.37
2019-03-27T17:19:12.162Z,25.70
2019-03-27T17:21:43.238Z,25.10
2019-03-27T17:24:17.060Z,23.37
2019-03-27T17:26:46.077Z,20.10
2019-03-27T17:29:15.184Z,23.00
2019-03-27T17:31:44.159Z,20.63
2019-03-27T17:34:13.421Z,24.93
2019-03-27T17:36:42.709Z,17.50
2019-03-27T17:39:11.733Z,17.57
2019-03-27T17:41:40.742Z,15.10
2019-03-27T17:44:09.734Z,18.60
2019-03-27T17:46:38.833Z,20.10
2019-03-27T17:49:12.016Z,17.97
2019-03-27T17:51:41.169Z,33.37
2019-03-27T17:54:20.368Z,18.60
2019-03-27T17:56:40.952Z,23.60
2019-03-27T17:59:09.770Z,19.77
2019-03-27T18:01:38.831Z,16.10
2019-03-27T18:04:07.727Z,13.40
2019-03-27T18:06:37.670Z,18.90
2019-03-27T18:09:09.479Z,15.43
2019-03-27T18:11:38.421Z,14.50
2019-03-27T18:14:11.713Z,18.07
2019-03-27T18:16:45.729Z,11.80
2019-03-27T18:19:14.361Z,14.10
2019-03-27T18:21:43.448Z,12.07
2019-03-27T18:24:12.424Z,14.50
2019-03-27T18:26:41.570Z,15.00
2019-03-27T18:29:10.560Z,16.70
2019-03-27T18:31:39.411Z,14.60
2019-03-27T18:34:08.770Z,23.27
2019-03-27T18:36:37.917Z,15.27
2019-03-27T18:39:08.085Z,15.97
2019-03-27T18:41:37.047Z,16.43
2019-03-27T18:44:28.104Z,15.40
2019-03-27T18:46:56.962Z,13.67
2019-03-27T18:49:29.884Z,12.60
2019-03-27T18:51:58.915Z,20.77
2019-03-27T18:54:28.198Z,12.27
2019-03-27T18:56:57.034Z,16.53
2019-03-27T18:59:31.991Z,14.70
2019-03-27T19:02:01.099Z,19.57
2019-03-27T19:04:29.981Z,15.60
2019-03-27T19:06:59.059Z,18.07
2019-03-27T19:09:27.954Z,15.17
2019-03-27T19:11:56.807Z,14.13
2019-03-27T19:14:25.711Z,20.30
2019-03-27T19:16:54.650Z,17.73
2019-03-27T19:19:23.725Z,18.03
2019-03-27T19:21:52.697Z,18.00
2019-03-27T19:24:24.983Z,18.87
2019-03-27T19:26:53.798Z,17.63
2019-03-27T19:29:22.862Z,17.30
2019-03-27T19:31:51.763Z,25.23
2019-03-27T19:34:20.657Z,15.53
2019-03-27T19:36:49.603Z,22.10
2019-03-27T19:39:18.554Z,21.80
2019-03-27T19:41:47.669Z,18.33
2019-03-27T19:44:16.684Z,24.07
2019-03-27T19:46:45.711Z,24.50
2019-03-27T19:49:14.663Z,22.53
2019-03-27T19:51:43.536Z,21.77
2019-03-27T19:54:26.201Z,22.70
2019-03-27T19:56:43.291Z,19.87
2019-03-27T19:59:15.050Z,17.83
2019-03-27T20:01:44.082Z,21.80
2019-03-27T20:04:13.259Z,21.33
2019-03-27T20:06:42.177Z,26.87
2019-03-27T20:09:11.343Z,23.77
2019-03-27T20:11:40.272Z,28.80
2019-03-27T20:14:09.406Z,26.43
2019-03-27T20:16:38.598Z,26.37
2019-03-27T20:19:07.546Z,26.10
2019-03-27T20:21:36.483Z,23.27
2019-03-27T20:24:05.671Z,24.17
2019-03-27T20:26:34.777Z,26.10
2019-03-27T20:29:07.036Z,26.87
2019-03-27T20:31:35.978Z,24.53
2019-03-27T20:34:05.041Z,29.03
2019-03-27T20:36:34.118Z,28.07
2019-03-27T20:39:03.485Z,28.10
2019-03-27T20:41:42.977Z,26.20
2019-03-27T20:44:13.630Z,29.53
2019-03-27T20:46:42.609Z,29.20
2019-03-27T20:49:11.865Z,29.17
2019-03-27T20:51:40.961Z,27.33
2019-03-27T20:54:10.334Z,31.90
2019-03-27T20:56:41.104Z,30.07
2019-03-27T20:59:10.290Z,28.13
2019-03-27T21:01:40.023Z,24.17
2019-03-27T21:04:13.127Z,27.73
2019-03-27T21:06:43.866Z,26.70
2019-03-27T21:09:13.191Z,25.13
2019-03-27T21:11:44.790Z,27.40
2019-03-27T21:14:13.962Z,26.00
2019-03-27T21:16:43.159Z,26.93
2019-03-27T21:19:12.541Z,32.07
2019-03-27T21:22:09.358Z,25.63
2019-03-27T21:24:39.134Z,25.03
2019-03-27T21:27:11.334Z,28.10
2019-03-27T21:29:40.563Z,24.27
2019-03-27T21:32:10.244Z,25.23
2019-03-27T21:35:03.724Z,24.50
2019-03-27T21:37:35.818Z,25.83
2019-03-27T21:40:10.102Z,23.93
